M I D A S
Marine Information and Data Acquisition System
Tripno 1623 of the Zeeleeuw from 2008-12-19 08:01:44 to 2008-12-19 15:37:09
Back to CruiseResearch ActivitiesStationsMapUnderway DataData graphs

EquipmentUnitsComment
TimeDGPSUTC
LatitudeDGPSDM.mWGS84
LongitudeDGPSDM.mWGS84
HeadingGyrodeg 
SOGDGPSknotsSpeed over ground
COGDGPSdegCourse over ground
DepthEcho soundermeters200 kHz
Missing or incorrect values are displayed as -999
Navigation data collected by the RV Zeeleeuw from 2008-12-19 07:58:03 to 2008-12-19 15:40:02
Time Latitude Longitude Heading SOG COG Depth
2008-12-19 07:59:08 51°13.663 2°55.937 106.1 2.1 284 -999
2008-12-19 08:00:09 51°13.683 2°55.845 111.9 4.3 292 -999
2008-12-19 08:01:08 51°13.707 2°55.752 109.8 1.2 294 -999
2008-12-19 08:02:07 51°13.706 2°55.758 59 1.7 231 14.8
2008-12-19 08:03:08 51°13.709 2°55.755 23.5 1.8 29 -999
2008-12-19 08:04:08 51°13.696 2°55.759 16.7 0.5 14 -999
2008-12-19 08:05:07 51°13.758 2°55.707 327.6 6.9 327 11.9
2008-12-19 08:06:05 51°13.861 2°55.614 333 7.4 332 11.8
2008-12-19 08:07:05 51°13.974 2°55.525 334.9 7.9 334 11.9
2008-12-19 08:08:05 51°14.099 2°55.422 333.5 8.7 333 11.7
2008-12-19 08:09:05 51°14.224 2°55.299 322.8 9 319 12
2008-12-19 08:10:05 51°14.323 2°55.12 308.9 9.3 308 12.5
2008-12-19 08:11:05 51°14.42 2°54.901 314.3 10.9 314 12
2008-12-19 08:12:05 51°14.578 2°54.724 329.2 11.9 328 11
2008-12-19 08:13:05 51°14.749 2°54.567 332.7 11.8 332 10.8
2008-12-19 08:14:05 51°14.925 2°54.423 333.7 11.9 334 10.6
2008-12-19 08:15:05 51°15.102 2°54.276 331.3 12 330 12.9
2008-12-19 08:16:05 51°15.275 2°54.116 330.5 11.9 329 12.5
2008-12-19 08:17:05 51°15.445 2°53.952 328.9 11.9 327 12.5
2008-12-19 08:18:05 51°15.62 2°53.814 338 11.8 336 12.1
2008-12-19 08:19:05 51°15.801 2°53.686 337.8 12 336 12.4
2008-12-19 08:20:05 51°15.979 2°53.548 334.2 12 333 12.5
2008-12-19 08:21:05 51°16.158 2°53.408 334.6 12.1 334 12.5
2008-12-19 08:22:05 51°16.335 2°53.266 332.6 11.8 333 12.8
2008-12-19 08:23:05 51°16.51 2°53.122 332.5 11.8 332 12.8
2008-12-19 08:24:05 51°16.685 2°52.976 332.8 11.9 334 12.6
2008-12-19 08:25:05 51°16.857 2°52.832 330.9 11.8 331 10.4
2008-12-19 08:26:05 51°17.033 2°52.683 332.5 12.1 330 11.2
2008-12-19 08:27:05 51°17.206 2°52.536 332.7 11.8 332 10.7
2008-12-19 08:28:05 51°17.383 2°52.399 335.7 11.9 334 11.5
2008-12-19 08:29:05 51°17.567 2°52.273 336.9 12 337 11.4
2008-12-19 08:30:05 51°17.749 2°52.142 336.3 12.1 336 11.4
2008-12-19 08:31:05 51°17.929 2°52.002 333.7 11.9 333 11.4
2008-12-19 08:32:05 51°18.109 2°51.866 336.3 11.8 334 11.8
2008-12-19 08:33:05 51°18.285 2°51.729 335.4 11.8 332 12.8
2008-12-19 08:34:05 51°18.465 2°51.585 335.2 12.2 335 13.7
2008-12-19 08:35:05 51°18.648 2°51.441 335.9 12 334 14.7
2008-12-19 08:36:05 51°18.824 2°51.306 334.9 11.5 336 15.4
2008-12-19 08:37:05 51°18.998 2°51.171 335.1 11.7 333 15.8
2008-12-19 08:38:05 51°19.173 2°51.032 336.1 12 335 15.9
2008-12-19 08:39:05 51°19.35 2°50.894 334.8 11.9 334 15.2
2008-12-19 08:40:05 51°19.525 2°50.754 335.2 11.9 334 13.4
2008-12-19 08:41:05 51°19.701 2°50.605 334.3 11.9 331 12.6
2008-12-19 08:42:05 51°19.884 2°50.48 341.4 12 339 14.6
2008-12-19 08:43:05 51°20.072 2°50.371 342.6 11.8 339 16.5
2008-12-19 08:44:05 51°20.258 2°50.262 340.8 11.8 340 17.8
2008-12-19 08:45:05 51°20.445 2°50.154 342.1 12.1 340 20.4
2008-12-19 08:46:05 51°20.634 2°50.045 341.5 12 339 23
2008-12-19 08:47:05 51°20.829 2°49.992 1.9 12 6 23.9
2008-12-19 08:48:05 51°21.025 2°50.053 16.6 12.3 15 24
2008-12-19 08:49:05 51°21.222 2°50.135 15.2 12.1 15 23.8
2008-12-19 08:50:05 51°21.419 2°50.208 14.1 12 8 46
2008-12-19 08:51:05 51°21.619 2°50.244 6.4 12.2 5 48.9
2008-12-19 08:52:05 51°21.819 2°50.264 3.1 12 1 46.2
2008-12-19 08:53:05 51°22.019 2°50.266 1.7 12.1 358 23.6
2008-12-19 08:54:05 51°22.223 2°50.263 1.7 12.3 358 24
2008-12-19 08:55:05 51°22.427 2°50.266 2.3 12.4 3 23.6
2008-12-19 08:56:05 51°22.631 2°50.27 1.7 12.3 359 22.8
2008-12-19 08:57:05 51°22.834 2°50.273 1.7 12.1 2 18
2008-12-19 08:58:05 51°23.038 2°50.275 3 12.4 -999 16.8
2008-12-19 08:59:05 51°23.238 2°50.279 2.1 12 358 15.8
2008-12-19 09:00:05 51°23.437 2°50.285 1.9 11.9 3 18.3
2008-12-19 09:01:05 51°23.637 2°50.288 1.6 12.1 1 20.8
2008-12-19 09:02:05 51°23.836 2°50.29 2.2 12 2 22.6
2008-12-19 09:03:05 51°24.038 2°50.288 2.8 12.2 359 22.7
2008-12-19 09:04:05 51°24.234 2°50.292 2 12 359 22.6
2008-12-19 09:05:05 51°24.435 2°50.293 2.4 12 4 23.1
2008-12-19 09:06:05 51°24.634 2°50.294 1.7 11.9 3 23.4
2008-12-19 09:07:05 51°24.834 2°50.294 2 12 359 23.4
2008-12-19 09:08:05 51°25.03 2°50.294 1.4 12.1 2 23.5
2008-12-19 09:09:05 51°25.232 2°50.291 1.1 12.1 -999 48.4
2008-12-19 09:10:05 51°25.437 2°50.292 4.6 12.5 359 47.5
2008-12-19 09:11:05 51°25.642 2°50.294 3.2 12.3 1 44.6
2008-12-19 09:12:05 51°25.846 2°50.294 3.2 12.3 1 47.4
2008-12-19 09:13:05 51°26.049 2°50.294 2.1 12.2 -999 42.8
2008-12-19 09:14:05 51°26.253 2°50.295 1.7 12 3 43.8
2008-12-19 09:15:05 51°26.434 2°50.36 43.1 10.9 52 23.4
2008-12-19 09:16:05 51°26.529 2°50.627 59.6 12 57 23.9
2008-12-19 09:17:05 51°26.637 2°50.894 61.6 11.9 60 23.8
2008-12-19 09:18:05 51°26.737 2°51.17 62.7 12 59 25.4
2008-12-19 09:19:05 51°26.831 2°51.451 64.9 11.9 61 23.1
2008-12-19 09:20:05 51°26.926 2°51.731 64.6 12 61 24.3
2008-12-19 09:21:05 51°27.024 2°52.008 64 11.8 60 21.7
2008-12-19 09:22:05 51°27.119 2°52.286 63.7 12.1 68 20.5
2008-12-19 09:23:05 51°27.217 2°52.563 65.7 11.8 51 21.7
2008-12-19 09:24:05 51°27.312 2°52.842 65.5 12.4 61 21.5
2008-12-19 09:25:05 51°27.408 2°53.119 65.2 11.7 59 22.2
2008-12-19 09:26:05 51°27.504 2°53.399 64.3 12.2 63 24.6
2008-12-19 09:27:05 51°27.602 2°53.679 64.9 12 64 23.4
2008-12-19 09:28:05 51°27.696 2°53.961 66.9 12.2 60 22.4
2008-12-19 09:29:05 51°27.789 2°54.244 64.5 11.8 60 21.7
2008-12-19 09:30:05 51°27.888 2°54.523 62 12.5 60 24.3
2008-12-19 09:31:05 51°27.992 2°54.796 59.9 12 55 24.3
2008-12-19 09:32:05 51°28.094 2°55.073 60.8 12.1 61 23.3
2008-12-19 09:33:05 51°28.197 2°55.35 62 12.3 58 25
2008-12-19 09:34:05 51°28.301 2°55.629 59.4 12 64 26.4
2008-12-19 09:35:05 51°28.403 2°55.908 62.7 12.5 57 26.1
2008-12-19 09:36:05 51°28.508 2°56.18 57.1 11.9 59 26.1
2008-12-19 09:37:05 51°28.609 2°56.459 61.4 12.4 62 25.3
2008-12-19 09:38:05 51°28.712 2°56.739 64.1 12.1 55 25.7
2008-12-19 09:39:05 51°28.815 2°57.014 59.1 12 60 26.6
2008-12-19 09:40:05 51°28.917 2°57.291 63.1 12.2 54 26.5
2008-12-19 09:41:05 51°29.023 2°57.567 61.2 12.2 54 26.2
2008-12-19 09:42:05 51°29.127 2°57.843 59.4 11.8 60 26.2
2008-12-19 09:43:05 51°29.231 2°58.117 62 12.2 56 26.8
2008-12-19 09:44:05 51°29.335 2°58.392 59.8 11.9 61 27
2008-12-19 09:45:05 51°29.439 2°58.667 59.9 12.1 60 27.1
2008-12-19 09:46:05 51°29.542 2°58.94 61.4 12.1 61 26.9
2008-12-19 09:47:05 51°29.644 2°59.216 61 12.3 63 27.1
2008-12-19 09:48:05 51°29.747 2°59.487 59.9 11.7 61 27.5
2008-12-19 09:49:05 51°29.846 2°59.762 58.3 11.7 64 27.2
2008-12-19 09:50:05 51°29.947 3°0.034 62.6 11.9 60 27.5
2008-12-19 09:51:05 51°30.046 3°0.307 61 11.8 63 27.7
2008-12-19 09:52:05 51°30.145 3°0.579 59.6 11.5 63 28
2008-12-19 09:53:05 51°30.246 3°0.847 59.1 12 67 27.9
2008-12-19 09:54:05 51°30.349 3°1.113 58.7 11.5 56 27.8
2008-12-19 09:55:05 51°30.446 3°1.385 62.3 11.8 55 27.8
2008-12-19 09:56:05 51°30.545 3°1.654 59.5 11.6 56 27.8
2008-12-19 09:57:05 51°30.642 3°1.925 61.7 11.4 64 28.1
2008-12-19 09:58:05 51°30.74 3°2.196 61.5 11.6 58 28.3
2008-12-19 09:59:05 51°30.843 3°2.457 57.5 11.8 60 28.2
2008-12-19 10:00:05 51°30.947 3°2.72 58.8 11.6 50 28.5
2008-12-19 10:01:05 51°31.052 3°2.983 58.9 11.7 54 27.8
2008-12-19 10:02:05 51°31.156 3°3.252 59.8 11.7 57 28.8
2008-12-19 10:03:05 51°31.264 3°3.515 56.9 11.5 62 28.8
2008-12-19 10:04:05 51°31.366 3°3.783 60.9 11.8 53 28.3
2008-12-19 10:05:05 51°31.467 3°4.046 61.2 11.3 55 27.6
2008-12-19 10:06:05 51°31.568 3°4.306 59.2 11.5 58 27.8
2008-12-19 10:07:05 51°31.672 3°4.564 59.1 11.6 56 28.8
2008-12-19 10:08:05 51°31.775 3°4.825 60.5 11.7 54 28.8
2008-12-19 10:09:05 51°31.929 3°4.976 18.1 11.2 10 27.9
2008-12-19 10:10:05 51°32.11 3°4.939 346.4 10.6 341 28.8
2008-12-19 10:11:05 51°32.259 3°4.792 323.5 11.4 319 28.1
2008-12-19 10:12:06 51°32.39 3°4.588 314.4 11.1 312 29.1
2008-12-19 10:13:05 51°32.512 3°4.359 313.2 11.2 308 31.8
2008-12-19 10:14:05 51°32.639 3°4.131 313.4 11.9 313 32.8
2008-12-19 10:15:05 51°32.769 3°3.897 312.6 11.8 312 29.1
2008-12-19 10:16:05 51°32.895 3°3.659 309.2 11.9 302 24.1
2008-12-19 10:17:05 51°32.947 3°3.356 271.3 11.9 268 21.3
2008-12-19 10:18:05 51°32.882 3°3.06 239.3 11.8 241 20.4
2008-12-19 10:19:05 51°32.792 3°2.783 245.8 11.8 248 22.5
2008-12-19 10:20:05 51°32.718 3°2.489 250 12 250 20.2
2008-12-19 10:21:05 51°32.648 3°2.191 248.9 11.9 248 23.1
2008-12-19 10:22:05 51°32.57 3°1.898 246.1 12.1 245 23.4
2008-12-19 10:23:05 51°32.484 3°1.608 245.1 11.5 241 24.5
2008-12-19 10:24:05 51°32.394 3°1.331 244 12.1 242 24.1
2008-12-19 10:25:05 51°32.301 3°1.045 243.7 12.1 245 23.2
2008-12-19 10:26:05 51°32.208 3°0.759 244.1 12 243 24.3
2008-12-19 10:27:05 51°32.115 3°0.473 243.4 12.3 243 23.9
2008-12-19 10:28:05 51°32.022 3°0.187 244.3 11.7 244 27
2008-12-19 10:29:05 51°31.931 2°59.906 244.6 11.9 240 25.2
2008-12-19 10:30:05 51°31.839 2°59.643 245.2 11.4 239 26.5
2008-12-19 10:31:05 51°31.746 2°59.364 244.8 12 243 27.5
2008-12-19 10:32:05 51°31.651 2°59.078 245.6 12.2 238 28.6
2008-12-19 10:33:05 51°31.558 2°58.803 243.8 11.9 245 30
2008-12-19 10:34:05 51°31.464 2°58.519 244 12.2 245 30.2
2008-12-19 10:35:05 51°31.371 2°58.233 244.4 12.4 242 29.4
2008-12-19 10:36:05 51°31.271 2°57.943 241.2 12.3 241 29.7
2008-12-19 10:37:05 51°31.167 2°57.664 240.2 12.3 238 29.6
2008-12-19 10:38:05 51°31.063 2°57.38 242 12.4 241 30.8
2008-12-19 10:39:05 51°30.958 2°57.098 240.2 12.1 238 29.5
2008-12-19 10:40:05 51°30.856 2°56.819 242.2 11.8 240 30.1
2008-12-19 10:41:05 51°30.76 2°56.533 243.4 12.1 242 31.7
2008-12-19 10:42:05 51°30.663 2°56.248 243.7 12.6 241 32.4
2008-12-19 10:43:05 51°30.566 2°55.958 243.3 12.2 242 32.4
2008-12-19 10:44:05 51°30.469 2°55.67 243.3 12.1 242 33.9
2008-12-19 10:45:05 51°30.371 2°55.378 243.4 12.3 240 34.3
2008-12-19 10:46:05 51°30.273 2°55.083 243 12.5 242 34.8
2008-12-19 10:47:05 51°30.176 2°54.786 243.8 12.5 242 33.4
2008-12-19 10:48:05 51°30.078 2°54.489 242 12.7 243 32.8
2008-12-19 10:49:05 51°29.981 2°54.198 243.4 12.1 243 30.9
2008-12-19 10:50:05 51°29.885 2°53.912 242.7 12.3 243 30.3
2008-12-19 10:51:05 51°29.789 2°53.619 243 12.7 243 31.4
2008-12-19 10:52:05 51°29.691 2°53.325 242.3 12.5 242 31.6
2008-12-19 10:53:05 51°29.597 2°53.035 243.3 12.4 243 30.4
2008-12-19 10:54:05 51°29.5 2°52.751 242.2 12.1 242 30.5
2008-12-19 10:55:05 51°29.403 2°52.456 244.1 12.6 244 29.5
2008-12-19 10:56:05 51°29.308 2°52.171 243.7 12.4 245 30.1
2008-12-19 10:57:05 51°29.211 2°51.875 242.8 12.8 243 29.8
2008-12-19 10:58:05 51°29.113 2°51.578 243.1 12.7 243 29.5
2008-12-19 10:59:05 51°29.015 2°51.287 243.9 12.3 239 28.7
2008-12-19 11:00:05 51°28.919 2°50.999 242 12.1 244 25.9
2008-12-19 11:01:05 51°28.822 2°50.715 242.9 12.6 242 28.2
2008-12-19 11:02:05 51°28.725 2°50.42 242.5 12.7 245 26
2008-12-19 11:03:05 51°28.629 2°50.13 243.6 12.5 243 25.7
2008-12-19 11:04:05 51°28.533 2°49.842 243.7 12.4 243 27.1
2008-12-19 11:05:05 51°28.437 2°49.554 242.7 12.1 243 29.3
2008-12-19 11:06:05 51°28.344 2°49.265 243.8 12.3 242 29.3
2008-12-19 11:07:05 51°28.247 2°48.974 243.4 12.7 242 28.8
2008-12-19 11:08:05 51°28.15 2°48.679 243.9 12.5 241 25
2008-12-19 11:09:05 51°28.055 2°48.384 242.5 12.3 242 29.3
2008-12-19 11:10:05 51°27.962 2°48.095 242.7 12.3 242 28.1
2008-12-19 11:11:05 51°27.864 2°47.811 242.1 12.3 245 28.1
2008-12-19 11:12:05 51°27.769 2°47.526 244.5 12.2 239 28.3
2008-12-19 11:13:05 51°27.668 2°47.234 240.8 12.7 240 30
2008-12-19 11:14:05 51°27.562 2°46.946 240.7 12.7 240 31.3
2008-12-19 11:15:05 51°27.45 2°46.663 238.3 12.7 235 31.4
2008-12-19 11:16:05 51°27.335 2°46.379 238.3 12.7 239 29.4
2008-12-19 11:17:05 51°27.23 2°46.089 241.2 12.8 241 29.1
2008-12-19 11:18:05 51°27.126 2°45.79 242.2 13 243 29.2
2008-12-19 11:19:05 51°27.026 2°45.49 242.2 12.8 241 27.8
2008-12-19 11:20:05 51°26.927 2°45.194 241.5 12.7 243 27.5
2008-12-19 11:21:05 51°26.826 2°44.901 241.8 12.4 239 26.8
2008-12-19 11:22:05 51°26.727 2°44.608 243.1 12.6 241 27.6
2008-12-19 11:23:05 51°26.627 2°44.317 241.6 12.6 242 26.2
2008-12-19 11:24:05 51°26.526 2°44.021 242.9 12.5 243 25.2
2008-12-19 11:25:05 51°26.426 2°43.719 243.1 12.9 242 20.2
2008-12-19 11:26:05 51°26.325 2°43.42 243.1 13.1 241 24.7
2008-12-19 11:27:05 51°26.357 2°43.139 323.4 10.5 327 23.9
2008-12-19 11:28:05 51°26.524 2°43.033 344.3 10.8 340 25.5
2008-12-19 11:29:05 51°26.692 2°42.925 342.1 10.7 337 24.3
2008-12-19 11:30:05 51°26.867 2°42.811 344.7 11.5 338 30.7
2008-12-19 11:31:05 51°27.043 2°42.694 342.5 11.5 338 31
2008-12-19 11:32:05 51°27.221 2°42.582 343.5 11.1 341 31.7
2008-12-19 11:33:05 51°27.394 2°42.471 343.9 11.7 337 30.6
2008-12-19 11:34:05 51°27.57 2°42.362 344.8 11.3 337 29.7
2008-12-19 11:35:05 51°27.719 2°42.411 56.1 10.1 67 29.7
2008-12-19 11:36:05 51°27.798 2°42.664 62 10.9 66 30.3
2008-12-19 11:37:05 51°27.881 2°42.922 61 10.8 71 31
2008-12-19 11:38:05 51°27.966 2°43.176 59.1 10.7 63 32
2008-12-19 11:39:05 51°28.051 2°43.437 62 11.2 64 31.6
2008-12-19 11:40:05 51°28.13 2°43.698 64.3 11.2 65 29.3
2008-12-19 11:41:05 51°28.216 2°43.953 58.8 11.2 62 29.2
2008-12-19 11:42:05 51°28.308 2°44.207 61.6 11.1 55 28.2
2008-12-19 11:43:05 51°28.4 2°44.46 62.1 11.3 61 30
2008-12-19 11:44:05 51°28.493 2°44.713 59.4 11.3 64 28.2
2008-12-19 11:45:05 51°28.584 2°44.97 60.7 11.3 59 26.5
2008-12-19 11:46:05 51°28.675 2°45.226 56.9 11.1 57 26.3
2008-12-19 11:47:05 51°28.764 2°45.478 60.5 11 56 25.8
2008-12-19 11:48:05 51°28.855 2°45.728 53.9 10.7 63 -999
2008-12-19 11:49:05 51°28.942 2°45.979 61.6 10.9 70 24.2
2008-12-19 11:50:05 51°29.029 2°46.227 57.1 10.8 68 22.5
2008-12-19 11:51:05 51°29.112 2°46.483 61.2 11.2 69 26
2008-12-19 11:52:05 51°29.201 2°46.733 57.5 10.4 58 26.3
2008-12-19 11:53:05 51°29.286 2°46.987 59.4 10.8 65 23.1
2008-12-19 11:54:05 51°29.373 2°47.239 59.7 10.7 56 24.8
2008-12-19 11:55:05 51°29.457 2°47.494 64.6 10.8 61 22.6
2008-12-19 11:56:05 51°29.543 2°47.746 61.2 10.6 67 24.4
2008-12-19 11:57:05 51°29.629 2°47.999 59 10.8 63 23.7
2008-12-19 11:58:05 51°29.717 2°48.251 59.9 10.7 63 23.8
2008-12-19 11:59:05 51°29.805 2°48.507 59.8 11 64 23.3
2008-12-19 12:00:05 51°29.889 2°48.763 60.4 11.3 68 21.2
2008-12-19 12:01:05 51°29.978 2°49.016 59.2 11 62 22.6
2008-12-19 12:02:05 51°30.062 2°49.274 61.6 10.8 57 22.3
2008-12-19 12:03:05 51°30.148 2°49.53 61.3 11.2 63 21.8
2008-12-19 12:04:05 51°30.233 2°49.788 58.3 10.9 68 18.6
2008-12-19 12:05:05 51°30.316 2°50.049 61.3 10.8 63 21.5
2008-12-19 12:06:05 51°30.393 2°50.315 63.7 10.8 65 20.1
2008-12-19 12:07:05 51°30.472 2°50.575 60.5 10.8 64 22.6
2008-12-19 12:08:05 51°30.549 2°50.84 63.6 11.1 66 22.1
2008-12-19 12:09:05 51°30.631 2°51.102 62.5 11.3 67 20.9
2008-12-19 12:10:05 51°30.707 2°51.367 62.5 11.1 68 21.3
2008-12-19 12:11:05 51°30.785 2°51.628 65 10.7 63 19.7
2008-12-19 12:12:05 51°30.864 2°51.886 61.9 10.9 53 19.7
2008-12-19 12:13:05 51°30.944 2°52.141 62.4 10.9 59 20.1
2008-12-19 12:14:05 51°31.022 2°52.409 66 11.4 57 19.7
2008-12-19 12:15:05 51°31.079 2°52.609 63.4 5.9 65 18
2008-12-19 12:16:05 51°31.113 2°52.753 62.7 7.6 63 20
2008-12-19 12:17:05 51°31.182 2°52.99 61.1 10.5 64 20.3
2008-12-19 12:18:05 51°31.26 2°53.245 62.4 10.6 57 19.7
2008-12-19 12:19:05 51°31.33 2°53.51 65.9 10.6 71 19.8
2008-12-19 12:20:05 51°31.386 2°53.779 71.4 10.9 81 17.6
2008-12-19 12:21:05 51°31.418 2°54.067 78.2 10.9 84 19.8
2008-12-19 12:22:05 51°31.412 2°54.361 91.5 11 95 17.3
2008-12-19 12:23:05 51°31.394 2°54.657 90.2 11.3 95 17.6
2008-12-19 12:24:05 51°31.375 2°54.952 93.2 11.3 98 18.1
2008-12-19 12:25:05 51°31.356 2°55.251 90.8 11.2 91 18.3
2008-12-19 12:26:05 51°31.342 2°55.547 89 11.4 99 17.7
2008-12-19 12:27:05 51°31.317 2°55.842 95.4 11.3 106 18.2
2008-12-19 12:28:05 51°31.289 2°56.139 94.9 11.7 106 20.7
2008-12-19 12:29:05 51°31.258 2°56.435 96 11.1 102 30.1
2008-12-19 12:30:05 51°31.249 2°56.725 84.2 10.5 83 30.3
2008-12-19 12:31:05 51°31.286 2°56.999 69.6 10.3 68 33
2008-12-19 12:32:05 51°31.366 2°57.245 56.3 10.3 56 33
2008-12-19 12:33:05 51°31.466 2°57.471 53.3 10.4 47 34.7
2008-12-19 12:34:05 51°31.572 2°57.688 51.5 10.2 49 32.6
2008-12-19 12:35:05 51°31.684 2°57.899 48.9 10.5 51 34.7
2008-12-19 12:36:05 51°31.8 2°58.107 50.2 10.3 44 35
2008-12-19 12:37:05 51°31.913 2°58.315 49.7 10.4 47 37.6
2008-12-19 12:38:05 51°32.032 2°58.517 49.9 10.8 49 36.8
2008-12-19 12:39:05 51°32.156 2°58.706 46.2 10.2 43 34.8
2008-12-19 12:40:05 51°32.283 2°58.897 46.1 10.6 44 33.6
2008-12-19 12:41:05 51°32.409 2°59.083 43.1 10.3 35 34.7
2008-12-19 12:42:05 51°32.543 2°59.255 40 10.3 40 34.7
2008-12-19 12:43:05 51°32.679 2°59.425 41.7 10.5 30 32.6
2008-12-19 12:44:05 51°32.811 2°59.602 43.1 10.2 37 31.7
2008-12-19 12:45:05 51°32.941 2°59.769 40.2 10.3 33 32.3
2008-12-19 12:46:05 51°33.074 2°59.941 41 10.6 36 32.8
2008-12-19 12:47:05 51°33.21 3°0.103 37.5 10 37 31.5
2008-12-19 12:48:05 51°33.348 3°0.26 37.4 9.7 29 29.9
2008-12-19 12:49:05 51°33.492 3°0.398 31 10.1 26 26.2
2008-12-19 12:50:05 51°33.644 3°0.519 28.4 9.5 37 16.8
2008-12-19 12:51:05 51°33.783 3°0.634 28.7 9.7 24 14
2008-12-19 12:52:05 51°33.925 3°0.749 27.4 9.9 22 13.9
2008-12-19 12:53:05 51°34.071 3°0.878 30.2 10.1 35 14.2
2008-12-19 12:54:05 51°34.224 3°0.98 19.2 9.9 15 13.8
2008-12-19 12:55:05 51°34.375 3°0.942 347.8 10 342 15
2008-12-19 12:56:05 51°34.53 3°0.855 347.2 10.2 341 16.8
2008-12-19 12:57:05 51°34.687 3°0.759 344.9 10.1 338 18.6
2008-12-19 12:58:05 51°34.843 3°0.63 336.3 11 326 20.1
2008-12-19 12:59:05 51°34.971 3°0.419 320 11.3 308 24.9
2008-12-19 13:00:05 51°35.09 3°0.196 320 10.9 311 27.3
2008-12-19 13:01:05 51°35.211 2°59.971 320.7 10.8 310 24.8
2008-12-19 13:02:05 51°35.331 2°59.753 322 11.2 312 27.9
2008-12-19 13:03:05 51°35.458 2°59.53 321.9 11 312 31.2
2008-12-19 13:04:05 51°35.584 2°59.311 322 11.6 311 31.4
2008-12-19 13:05:05 51°35.661 2°59.038 284.4 11.8 271 -999
2008-12-19 13:06:05 51°35.593 2°58.735 242.1 12.7 237 31.8
2008-12-19 13:07:05 51°35.479 2°58.443 241.6 12.7 237 34.4
2008-12-19 13:08:05 51°35.37 2°58.142 245.8 13.3 239 32.2
2008-12-19 13:09:05 51°35.26 2°57.832 245.7 13.3 241 33.8
2008-12-19 13:10:05 51°35.153 2°57.53 245.3 13.2 242 32.9
2008-12-19 13:11:05 51°35.044 2°57.218 245.2 13.5 237 33.2
2008-12-19 13:12:05 51°34.937 2°56.907 245.4 13.5 244 32.4
2008-12-19 13:13:05 51°34.827 2°56.598 245.1 13.1 240 33.6
2008-12-19 13:14:05 51°34.721 2°56.289 245.9 13 240 32.2
2008-12-19 13:15:05 51°34.614 2°55.982 244.2 13.2 239 31.4
2008-12-19 13:16:05 51°34.509 2°55.677 245.7 13.2 239 31
2008-12-19 13:17:05 51°34.404 2°55.369 244.9 12.8 240 30.2
2008-12-19 13:18:05 51°34.299 2°55.067 245.3 13.1 240 30
2008-12-19 13:19:05 51°34.196 2°54.756 246.3 13.1 241 30
2008-12-19 13:20:05 51°34.091 2°54.448 245.2 13.1 241 30.4
2008-12-19 13:21:05 51°33.987 2°54.137 246.3 13.1 243 30.4
2008-12-19 13:22:05 51°33.885 2°53.831 245.2 13 241 28.7
2008-12-19 13:23:05 51°33.782 2°53.531 244.3 13.1 241 32
2008-12-19 13:24:05 51°33.68 2°53.225 244.9 12.9 241 31.3
2008-12-19 13:25:05 51°33.577 2°52.919 244.7 13.2 241 30.7
2008-12-19 13:26:05 51°33.474 2°52.606 246.8 13.3 243 29.3
2008-12-19 13:27:05 51°33.369 2°52.296 244.8 13 242 29.1
2008-12-19 13:28:05 51°33.265 2°51.983 245.3 13.4 242 32.7
2008-12-19 13:29:05 51°33.161 2°51.666 246.2 13.2 242 30.9
2008-12-19 13:30:05 51°33.057 2°51.35 244.8 13.7 243 32.9
2008-12-19 13:31:05 51°32.951 2°51.039 245.8 13.1 243 34.4
2008-12-19 13:32:05 51°32.842 2°50.732 243.9 13.3 239 32.7
2008-12-19 13:33:05 51°32.732 2°50.42 242.7 13.6 241 31.9
2008-12-19 13:34:05 51°32.622 2°50.109 243.4 13.3 239 30.8
2008-12-19 13:35:05 51°32.512 2°49.804 243.4 13.3 240 32.5
2008-12-19 13:36:05 51°32.403 2°49.499 243.4 13.2 241 30.8
2008-12-19 13:37:05 51°32.294 2°49.192 243.8 13.2 240 33.1
2008-12-19 13:38:05 51°32.185 2°48.887 242.7 13.1 238 32.5
2008-12-19 13:39:05 51°32.075 2°48.582 242.9 13.4 240 31.2
2008-12-19 13:40:05 51°31.968 2°48.274 243 13.2 242 33.2
2008-12-19 13:41:05 51°31.86 2°47.969 243.1 12.9 238 31.9
2008-12-19 13:42:05 51°31.752 2°47.661 244.8 13.2 241 29.4
2008-12-19 13:43:05 51°31.648 2°47.348 242.9 13.3 242 30.2
2008-12-19 13:44:05 51°31.54 2°47.043 242.5 13.3 240 29.8
2008-12-19 13:45:05 51°31.433 2°46.736 242.8 13.4 244 28.2
2008-12-19 13:46:05 51°31.326 2°46.424 244.4 13.5 236 28.3
2008-12-19 13:47:05 51°31.222 2°46.113 243.4 13.1 241 33.6
2008-12-19 13:48:05 51°31.115 2°45.807 243.6 13.2 241 32.5
2008-12-19 13:49:05 51°31.008 2°45.502 243.6 13 241 30.7
2008-12-19 13:50:05 51°30.903 2°45.201 243.1 12.8 243 32.3
2008-12-19 13:51:05 51°30.797 2°44.899 243.5 12.9 242 37
2008-12-19 13:52:05 51°30.691 2°44.597 244.1 13.1 243 30.8
2008-12-19 13:53:05 51°30.583 2°44.291 244.9 13.3 240 32.1
2008-12-19 13:54:05 51°30.476 2°43.983 243.2 13 239 32.9
2008-12-19 13:55:05 51°30.369 2°43.675 243 13.4 244 32.4
2008-12-19 13:56:05 51°30.261 2°43.363 243.7 13.3 239 33.1
2008-12-19 13:57:05 51°30.155 2°43.053 243.6 13.2 240 32.2
2008-12-19 13:58:05 51°30.045 2°42.748 240.8 13.4 237 31.5
2008-12-19 13:59:05 51°29.928 2°42.452 239.6 13.2 235 33.6
2008-12-19 14:00:05 51°29.809 2°42.157 239.4 13.2 239 31.3
2008-12-19 14:01:05 51°29.688 2°41.865 238.9 12.9 237 32.6
2008-12-19 14:02:05 51°29.565 2°41.581 232.4 13.4 230 32.5
2008-12-19 14:03:05 51°29.417 2°41.314 229 13.6 229 33.8
2008-12-19 14:04:05 51°29.268 2°41.047 229.6 13 228 33.6
2008-12-19 14:05:05 51°29.119 2°40.782 229.6 13.4 226 33.4
2008-12-19 14:06:05 51°28.973 2°40.512 229.8 13.6 235 34.3
2008-12-19 14:07:05 51°28.827 2°40.241 231.1 13.5 226 35.9
2008-12-19 14:08:05 51°28.682 2°39.972 229.6 13.3 230 34.7
2008-12-19 14:09:05 51°28.52 2°39.735 212.9 13.1 211 36.4
2008-12-19 14:10:05 51°28.314 2°39.642 176.8 12.7 178 34.7
2008-12-19 14:11:05 51°28.108 2°39.724 153.6 12.9 162 36
2008-12-19 14:12:05 51°27.91 2°39.853 150.1 12.8 156 34.2
2008-12-19 14:13:05 51°27.712 2°39.983 151.9 12.5 155 34.3
2008-12-19 14:14:05 51°27.517 2°40.117 151.8 12.9 149 30.5
2008-12-19 14:15:05 51°27.325 2°40.252 150.4 12.7 159 33.1
2008-12-19 14:16:05 51°27.135 2°40.398 146.4 12.5 151 32.7
2008-12-19 14:17:05 51°26.945 2°40.537 152.7 12.3 159 31.2
2008-12-19 14:18:05 51°26.756 2°40.672 151 12 160 30.8
2008-12-19 14:19:05 51°26.571 2°40.804 151.9 12.1 158 32.3
2008-12-19 14:20:05 51°26.387 2°40.935 149.3 12.2 153 31.4
2008-12-19 14:21:05 51°26.2 2°41.067 148.8 12.1 159 30.7
2008-12-19 14:22:05 51°26.017 2°41.202 149.7 12.3 154 28.7
2008-12-19 14:23:05 51°25.833 2°41.339 149.7 12.3 158 27.4
2008-12-19 14:24:05 51°25.651 2°41.477 150.2 11.9 152 28.5
2008-12-19 14:25:05 51°25.469 2°41.62 148.7 12.2 153 26.5
2008-12-19 14:26:05 51°25.287 2°41.765 147 12 153 25.4
2008-12-19 14:27:05 51°25.104 2°41.905 147.5 11.9 158 26.8
2008-12-19 14:28:05 51°24.92 2°42.04 149.4 12.1 154 23.9
2008-12-19 14:29:05 51°24.737 2°42.182 149.3 12.6 155 26.6
2008-12-19 14:30:05 51°24.551 2°42.326 147 12.3 155 21.6
2008-12-19 14:31:05 51°24.366 2°42.47 150.1 12.4 154 23.7
2008-12-19 14:32:05 51°24.184 2°42.612 149.8 12 155 22
2008-12-19 14:33:05 51°23.999 2°42.753 149.1 12 157 25.9
2008-12-19 14:34:05 51°23.817 2°42.887 151.6 12.1 158 27.3
2008-12-19 14:35:05 51°23.636 2°43.02 150.1 11.8 156 28.6
2008-12-19 14:36:05 51°23.458 2°43.151 149.4 11.8 153 26.6
2008-12-19 14:37:05 51°23.28 2°43.281 148.2 11.8 149 27.5
2008-12-19 14:38:05 51°23.101 2°43.414 149.8 12 159 27.6
2008-12-19 14:39:05 51°22.911 2°43.52 155.3 12.2 159 22.9
2008-12-19 14:40:05 51°22.72 2°43.616 157.5 12 160 25.5
2008-12-19 14:41:05 51°22.529 2°43.718 160.3 12.1 163 26.1
2008-12-19 14:42:05 51°22.333 2°43.808 160 12.4 170 24.2
2008-12-19 14:43:05 51°22.144 2°43.919 150.7 12.3 156 25.4
2008-12-19 14:44:05 51°21.967 2°44.075 144.1 12.1 146 24.3
2008-12-19 14:45:05 51°21.799 2°44.246 143.7 11.9 147 23.6
2008-12-19 14:46:05 51°21.628 2°44.414 145.2 12 142 23.4
2008-12-19 14:47:05 51°21.455 2°44.581 144.4 12.1 148 24.3
2008-12-19 14:48:05 51°21.285 2°44.75 144.2 12.2 150 25.6
2008-12-19 14:49:05 51°21.118 2°44.915 142.5 11.6 148 26.8
2008-12-19 14:50:05 51°20.952 2°45.075 143.8 11.7 148 27.6
2008-12-19 14:51:05 51°20.789 2°45.236 142.8 11.3 139 26.7
2008-12-19 14:52:05 51°20.64 2°45.423 133.7 11.6 143 24.2
2008-12-19 14:53:05 51°20.493 2°45.617 138 11.6 137 24
2008-12-19 14:54:05 51°20.346 2°45.813 136.5 11.6 137 21.9
2008-12-19 14:55:05 51°20.197 2°46.012 136.5 11.6 140 17.2
2008-12-19 14:56:05 51°20.044 2°46.209 135.4 11.7 147 14.2
2008-12-19 14:57:05 51°19.893 2°46.408 136.9 11.7 144 16.4
2008-12-19 14:58:05 51°19.743 2°46.608 137 11.5 135 20.3
2008-12-19 14:59:05 51°19.593 2°46.802 134.5 11.6 143 21.9
2008-12-19 15:00:05 51°19.441 2°46.997 138.2 11.7 141 22.2
2008-12-19 15:01:05 51°19.29 2°47.193 138.9 11.9 137 22.3
2008-12-19 15:02:05 51°19.138 2°47.389 136.3 11.7 145 21.5
2008-12-19 15:03:05 51°18.984 2°47.588 136.9 11.9 145 19.8
2008-12-19 15:04:05 51°18.829 2°47.783 139.1 12 139 17.6
2008-12-19 15:05:05 51°18.674 2°47.977 137.3 11.9 145 15.4
2008-12-19 15:06:05 51°18.518 2°48.167 141.1 12 136 14.1
2008-12-19 15:07:05 51°18.361 2°48.361 139.8 11.9 137 11.7
2008-12-19 15:08:05 51°18.21 2°48.564 137.5 12.2 141 11.6
2008-12-19 15:09:05 51°18.046 2°48.748 145.5 11.5 153 11.3
2008-12-19 15:10:05 51°17.876 2°48.915 146.1 12.2 150 11.2
2008-12-19 15:11:05 51°17.697 2°49.061 152 11.9 150 11.7
2008-12-19 15:12:05 51°17.52 2°49.209 146.4 11.8 158 12.7
2008-12-19 15:13:05 51°17.345 2°49.365 144.7 12.6 149 13.3
2008-12-19 15:14:05 51°17.169 2°49.515 148.6 11.9 147 13.2
2008-12-19 15:15:05 51°16.994 2°49.67 146.9 11.7 154 9.7
2008-12-19 15:16:05 51°16.816 2°49.824 147.4 12 155 13.6
2008-12-19 15:17:05 51°16.64 2°49.983 148.8 12.2 149 13.9
2008-12-19 15:18:05 51°16.469 2°50.142 147.7 12.1 148 12.2
2008-12-19 15:19:05 51°16.298 2°50.313 141.3 11.8 147 11.4
2008-12-19 15:20:05 51°16.174 2°50.559 116.4 12 119 10.4
2008-12-19 15:21:05 51°16.098 2°50.853 108.7 11.8 113 12.7
2008-12-19 15:22:05 51°16.022 2°51.147 110 11.8 118 14
2008-12-19 15:23:05 51°15.913 2°51.406 129.7 11.8 135 14.1
2008-12-19 15:24:05 51°15.773 2°51.624 136.7 11.8 136 14
2008-12-19 15:25:05 51°15.631 2°51.837 132.7 11.3 139 13.7
2008-12-19 15:26:05 51°15.507 2°52.08 125.7 11.9 126 13.3
2008-12-19 15:27:05 51°15.398 2°52.344 120.8 11.9 119 12.8
2008-12-19 15:28:05 51°15.298 2°52.613 118.6 11.6 118 12.4
2008-12-19 15:29:05 51°15.196 2°52.881 120.6 12.1 121 11.9
2008-12-19 15:30:05 51°15.096 2°53.15 120 12 123 11.8
2008-12-19 15:31:05 51°14.999 2°53.425 119.3 12.3 119 11.3
2008-12-19 15:32:05 51°14.893 2°53.705 120.6 12.5 122 11.1
2008-12-19 15:33:05 51°14.787 2°53.987 120.5 12.4 126 11.1
2008-12-19 15:34:05 51°14.682 2°54.268 122.6 12.5 119 11.9
2008-12-19 15:35:05 51°14.581 2°54.551 127.1 12.1 121 12
2008-12-19 15:36:05 51°14.476 2°54.837 125.8 12.8 123 12.3
2008-12-19 15:37:05 51°14.359 2°55.101 137.4 11.3 135 12.2
2008-12-19 15:38:05 51°14.249 2°55.26 137.9 7.4 139 12.5
2008-12-19 15:39:05 51°14.158 2°55.371 145.4 6.6 147 12.3